createdAt,value
2022-09-15T00:14:46.280Z,14.6
2022-09-15T00:29:56.068Z,14.3
2022-09-15T00:45:05.496Z,14.1
2022-09-15T01:00:15.101Z,14.1
2022-09-15T01:15:24.341Z,14.1
2022-09-15T01:30:34.179Z,13.9
2022-09-15T01:45:45.390Z,13.8
2022-09-15T02:00:55.298Z,13.6
2022-09-15T02:16:05.488Z,13.6
2022-09-15T02:31:15.625Z,13.5
2022-09-15T02:46:25.056Z,13.5
2022-09-15T03:01:35.095Z,13.4
2022-09-15T03:16:45.782Z,13.4
2022-09-15T03:31:55.667Z,13.3
2022-09-15T03:47:05.529Z,13.3
2022-09-15T04:02:15.404Z,13.2
2022-09-15T04:17:25.340Z,13.2
2022-09-15T04:32:34.508Z,13.2
2022-09-15T04:47:44.759Z,13.2
2022-09-15T05:02:54.533Z,13.3
2022-09-15T05:18:03.809Z,13.3
2022-09-15T05:33:13.050Z,13.3
2022-09-15T05:48:22.673Z,13.4
2022-09-15T06:03:32.480Z,13.5
2022-09-15T06:18:46.182Z,13.7
2022-09-15T06:33:55.806Z,13.8
2022-09-15T06:49:05.642Z,13.9
2022-09-15T07:04:15.555Z,14.1
2022-09-15T07:19:25.214Z,14.2
2022-09-15T07:34:34.524Z,14.3
2022-09-15T07:49:43.861Z,14.4
2022-09-15T08:04:52.983Z,14.6
2022-09-15T08:20:03.449Z,14.8
2022-09-15T08:35:13.304Z,14.9
2022-09-15T08:50:22.531Z,15.1
2022-09-15T09:05:32.215Z,15.3
2022-09-15T09:20:45.966Z,15.7
2022-09-15T09:35:55.736Z,16.1
2022-09-15T09:51:05.350Z,16.4
2022-09-15T10:06:14.831Z,16.7
2022-09-15T10:21:24.467Z,16.7
2022-09-15T10:36:33.991Z,16.6
2022-09-15T10:51:46.206Z,17.1
2022-09-15T11:06:56.285Z,17.1
2022-09-15T11:22:05.886Z,17.7
2022-09-15T11:37:15.604Z,17.7
2022-09-15T11:52:24.604Z,17.4
2022-09-15T12:07:34.053Z,17.2
2022-09-15T12:22:45.480Z,16.9
2022-09-15T12:37:55.130Z,16.9
2022-09-15T12:53:04.911Z,17.8
2022-09-15T13:08:14.131Z,17.6
2022-09-15T13:23:23.489Z,17.4
2022-09-15T13:38:33.398Z,17.8
2022-09-15T13:53:45.634Z,17.7
2022-09-15T14:08:54.795Z,17.9
2022-09-15T14:24:04.630Z,18.3
2022-09-15T14:39:14.584Z,18.2
2022-09-15T14:54:23.893Z,18
2022-09-15T15:09:33.626Z,17.8
2022-09-15T15:24:45.835Z,17.6
2022-09-15T15:39:55.213Z,17.4
2022-09-15T15:55:05.413Z,17.5
2022-09-15T16:10:14.863Z,17.5
2022-09-15T16:25:23.997Z,17.3
2022-09-15T16:40:33.201Z,17.1
2022-09-15T16:55:43.970Z,16.9
2022-09-15T17:10:53.076Z,16.8
2022-09-15T17:26:02.097Z,16.5
2022-09-15T17:41:11.024Z,16.4
2022-09-15T17:56:20.368Z,16.1
2022-09-15T18:11:29.988Z,15.7
2022-09-15T18:26:39.208Z,15.3
2022-09-15T18:56:58.743Z,15
2022-09-15T19:12:08.094Z,14.9
2022-09-15T19:27:17.629Z,14.8
2022-09-15T19:42:27.107Z,14.8
2022-09-15T19:57:36.471Z,14.7
2022-09-15T20:12:45.762Z,14.6
2022-09-15T20:27:55.090Z,14.4
2022-09-15T20:43:04.218Z,14.3
2022-09-15T20:58:13.568Z,14.2
2022-09-15T21:13:22.351Z,14.1
2022-09-15T21:28:31.975Z,13.9
2022-09-15T21:43:41.477Z,13.8
2022-09-15T21:58:50.615Z,13.6
2022-09-15T22:13:59.880Z,13.4
2022-09-15T22:29:08.931Z,13.3
2022-09-15T22:44:18.385Z,13.1
2022-09-15T22:59:28.182Z,13
2022-09-15T23:14:37.470Z,12.9
2022-09-15T23:29:46.848Z,12.8
2022-09-15T23:44:56.264Z,12.6
